createdAt,value
2022-10-03T00:00:50.663Z,11.68
2022-10-03T00:01:51.148Z,11.66
2022-10-03T00:02:51.468Z,11.57
2022-10-03T00:03:51.763Z,11.57
2022-10-03T00:04:52.114Z,11.65
2022-10-03T00:05:52.466Z,11.65
2022-10-03T00:06:52.838Z,11.70
2022-10-03T00:07:53.249Z,11.68
2022-10-03T00:08:53.548Z,11.68
2022-10-03T00:09:53.906Z,11.66
2022-10-03T00:10:54.250Z,11.66
2022-10-03T00:11:54.619Z,11.60
2022-10-03T00:12:54.965Z,11.59
2022-10-03T00:13:55.326Z,11.57
2022-10-03T00:14:55.693Z,11.60
2022-10-03T00:15:56.105Z,11.59
2022-10-03T00:16:56.394Z,11.55
2022-10-03T00:17:56.777Z,11.55
2022-10-03T00:18:57.124Z,11.55
2022-10-03T00:19:57.485Z,11.51
2022-10-03T00:20:57.839Z,11.59
2022-10-03T00:21:58.190Z,11.59
2022-10-03T00:22:58.547Z,11.54
2022-10-03T00:23:58.898Z,11.51
2022-10-03T00:24:59.261Z,11.50
2022-10-03T00:25:59.625Z,11.48
2022-10-03T00:26:59.971Z,11.52
2022-10-03T00:28:00.409Z,11.51
2022-10-03T00:29:00.670Z,11.51
2022-10-03T00:30:01.027Z,11.48
2022-10-03T00:31:01.446Z,11.50
2022-10-03T00:32:01.763Z,11.52
2022-10-03T00:33:02.152Z,11.45
2022-10-03T00:34:02.546Z,11.43
2022-10-03T00:35:02.872Z,11.44
2022-10-03T00:36:03.244Z,11.44
2022-10-03T00:37:03.588Z,11.44
2022-10-03T00:38:03.999Z,11.50
2022-10-03T00:39:04.314Z,11.47
2022-10-03T00:40:04.669Z,11.43
2022-10-03T00:41:05.046Z,11.45
2022-10-03T00:42:05.401Z,11.45
2022-10-03T00:43:05.777Z,11.52
2022-10-03T00:44:06.131Z,11.50
2022-10-03T00:45:06.487Z,11.54
2022-10-03T00:46:06.899Z,11.60
2022-10-03T00:47:07.210Z,11.62
2022-10-03T00:48:07.579Z,11.62
2022-10-03T00:49:07.943Z,11.63
2022-10-03T00:50:08.330Z,11.63
2022-10-03T00:51:08.703Z,11.62
2022-10-03T00:52:09.048Z,11.57
2022-10-03T00:53:09.428Z,11.52
2022-10-03T00:54:09.754Z,11.50
2022-10-03T00:55:10.101Z,11.50
2022-10-03T00:56:10.489Z,11.44
2022-10-03T00:57:10.851Z,11.37
2022-10-03T00:58:11.215Z,11.36
2022-10-03T00:59:11.556Z,11.35
2022-10-03T01:00:11.918Z,11.36
2022-10-03T01:01:12.338Z,11.41
2022-10-03T01:02:12.703Z,11.40
2022-10-03T01:03:13.010Z,11.36
2022-10-03T01:04:13.329Z,11.40
2022-10-03T01:05:13.678Z,11.35
2022-10-03T01:06:14.033Z,11.37
2022-10-03T01:07:14.391Z,11.35
2022-10-03T01:08:14.798Z,11.29
2022-10-03T01:09:15.104Z,11.30
2022-10-03T01:10:15.469Z,11.33
2022-10-03T01:11:15.825Z,11.32
2022-10-03T01:12:16.184Z,11.35
2022-10-03T01:13:16.552Z,11.30
2022-10-03T01:14:16.899Z,11.30
2022-10-03T01:15:17.250Z,11.29
2022-10-03T01:16:17.686Z,11.25
2022-10-03T01:17:17.974Z,11.25
2022-10-03T01:18:18.361Z,11.25
2022-10-03T01:19:18.701Z,11.25
2022-10-03T01:20:19.055Z,11.27
2022-10-03T01:21:19.419Z,11.30
2022-10-03T01:22:19.772Z,11.30
2022-10-03T01:23:20.152Z,11.43
2022-10-03T01:24:20.527Z,11.43
2022-10-03T01:25:20.863Z,11.43
2022-10-03T01:26:21.220Z,11.47
2022-10-03T01:27:21.579Z,11.50
2022-10-03T01:28:22.058Z,11.52
2022-10-03T01:29:22.302Z,11.52
2022-10-03T01:30:22.752Z,11.54
2022-10-03T01:31:23.091Z,11.54
2022-10-03T01:32:23.411Z,11.52
2022-10-03T01:33:23.783Z,11.55
2022-10-03T01:34:24.140Z,11.55
2022-10-03T01:35:24.492Z,11.57
2022-10-03T01:36:24.858Z,11.55
2022-10-03T01:37:25.201Z,11.54
2022-10-03T01:39:40.084Z,11.55
2022-10-03T01:40:41.428Z,11.57
2022-10-03T01:41:42.348Z,11.65
2022-10-03T01:42:42.129Z,11.62
2022-10-03T01:43:42.572Z,11.72
2022-10-03T01:44:42.846Z,11.75
2022-10-03T01:45:43.211Z,11.73
2022-10-03T01:46:43.587Z,11.75
2022-10-03T01:47:43.931Z,11.73
2022-10-03T01:48:44.299Z,11.78
2022-10-03T01:49:44.652Z,11.78
2022-10-03T01:50:45.008Z,11.78
2022-10-03T01:51:45.434Z,11.78
2022-10-03T01:52:45.725Z,11.77
2022-10-03T01:53:46.105Z,11.77
2022-10-03T01:54:46.457Z,11.78
2022-10-03T01:55:46.810Z,11.80
2022-10-03T01:56:47.172Z,11.80
2022-10-03T01:57:47.518Z,11.77
2022-10-03T01:58:47.897Z,11.73
2022-10-03T01:59:48.249Z,11.72
2022-10-03T02:00:48.709Z,11.66
2022-10-03T02:01:49.042Z,11.63
2022-10-03T02:02:49.354Z,11.60
2022-10-03T02:03:49.729Z,11.54
2022-10-03T02:04:50.085Z,11.51
2022-10-03T02:05:50.437Z,11.52
2022-10-03T02:06:50.840Z,11.50
2022-10-03T02:07:51.177Z,11.48
2022-10-03T02:08:51.659Z,11.45
2022-10-03T02:09:51.897Z,11.43
2022-10-03T02:10:52.242Z,11.40
2022-10-03T02:11:52.607Z,11.37
2022-10-03T02:12:52.960Z,11.36
2022-10-03T02:13:53.366Z,11.36
2022-10-03T02:14:53.679Z,11.41
2022-10-03T02:15:54.129Z,11.41
2022-10-03T02:16:54.405Z,11.48
2022-10-03T02:17:54.767Z,11.51
2022-10-03T02:18:55.147Z,11.57
2022-10-03T02:19:55.486Z,11.63
2022-10-03T02:20:55.845Z,11.62
2022-10-03T02:21:56.207Z,11.62
2022-10-03T02:22:56.565Z,11.66
2022-10-03T02:23:56.950Z,11.66
2022-10-03T02:24:57.326Z,11.65
2022-10-03T02:25:57.702Z,11.62
2022-10-03T02:26:58.710Z,11.60
2022-10-03T02:27:58.477Z,11.68
2022-10-03T02:28:58.812Z,11.73
2022-10-03T02:29:59.232Z,11.81
2022-10-03T02:30:59.520Z,11.83
2022-10-03T02:31:59.882Z,11.69
2022-10-03T02:33:00.227Z,11.59
2022-10-03T02:34:00.601Z,11.60
2022-10-03T02:35:00.978Z,11.59
2022-10-03T02:36:01.326Z,11.52
2022-10-03T02:37:01.683Z,11.51
2022-10-03T02:38:02.038Z,11.65
2022-10-03T02:39:02.418Z,11.65
2022-10-03T02:40:02.766Z,11.59
2022-10-03T02:41:03.111Z,11.52
2022-10-03T02:42:03.448Z,11.47
2022-10-03T02:43:03.861Z,11.47
2022-10-03T02:44:04.246Z,11.44
2022-10-03T02:45:04.563Z,11.50
2022-10-03T02:46:04.954Z,11.48
2022-10-03T02:47:05.282Z,11.50
2022-10-03T02:48:30.289Z,11.51
2022-10-03T02:49:06.047Z,11.45
2022-10-03T02:50:06.378Z,11.43
2022-10-03T02:51:06.737Z,11.40
2022-10-03T02:52:07.103Z,11.44
2022-10-03T02:53:07.459Z,11.47
2022-10-03T02:54:07.853Z,11.43
2022-10-03T02:55:08.215Z,11.36
2022-10-03T02:56:08.525Z,11.30
2022-10-03T02:57:08.888Z,11.30
2022-10-03T02:58:09.242Z,11.27
2022-10-03T02:59:09.611Z,11.29
2022-10-03T03:00:09.962Z,11.25
2022-10-03T03:01:10.354Z,11.22
2022-10-03T03:02:10.722Z,11.23
2022-10-03T03:03:11.049Z,11.26
2022-10-03T03:04:11.423Z,11.23
2022-10-03T03:05:11.767Z,11.29
2022-10-03T03:06:12.145Z,11.25
2022-10-03T03:07:12.496Z,11.19
2022-10-03T03:08:12.932Z,11.18
2022-10-03T03:09:13.310Z,11.15
2022-10-03T03:10:13.575Z,11.26
2022-10-03T03:11:13.932Z,11.25
2022-10-03T03:12:14.294Z,11.14
2022-10-03T03:13:14.665Z,11.19
2022-10-03T03:14:15.069Z,11.12
2022-10-03T03:15:15.394Z,11.12
2022-10-03T03:16:15.831Z,11.17
2022-10-03T03:17:16.119Z,11.15
2022-10-03T03:18:16.480Z,11.23
2022-10-03T03:19:16.841Z,11.35
2022-10-03T03:20:17.198Z,11.32
2022-10-03T03:21:17.543Z,11.27
2022-10-03T03:22:17.901Z,11.25
2022-10-03T03:23:18.274Z,11.27
2022-10-03T03:24:18.675Z,11.30
2022-10-03T03:25:18.980Z,11.27
2022-10-03T03:26:19.335Z,11.22
2022-10-03T03:27:19.701Z,11.14
2022-10-03T03:28:20.131Z,11.23
2022-10-03T03:29:20.444Z,11.27
2022-10-03T03:30:20.802Z,11.26
2022-10-03T03:31:21.225Z,11.26
2022-10-03T03:32:21.515Z,11.26
2022-10-03T03:33:21.889Z,11.19
2022-10-03T03:34:22.263Z,11.12
2022-10-03T03:35:22.596Z,11.08
2022-10-03T03:36:22.958Z,11.11
2022-10-03T03:37:23.310Z,11.11
2022-10-03T03:38:23.658Z,11.11
2022-10-03T03:39:24.035Z,11.08
2022-10-03T03:40:24.391Z,11.07
2022-10-03T03:41:24.796Z,11.07
2022-10-03T03:42:25.108Z,11.05
2022-10-03T03:43:25.476Z,11.05
2022-10-03T03:44:25.836Z,10.97
2022-10-03T03:45:26.255Z,10.97
2022-10-03T03:46:26.553Z,10.96
2022-10-03T03:47:26.884Z,10.92
2022-10-03T03:48:27.287Z,10.96
2022-10-03T03:49:27.660Z,10.97
2022-10-03T03:50:28.011Z,10.99
2022-10-03T03:51:28.369Z,11.00
2022-10-03T03:52:28.718Z,10.96
2022-10-03T03:53:29.055Z,10.94
2022-10-03T03:54:29.465Z,11.02
2022-10-03T03:55:29.780Z,11.05
2022-10-03T03:56:30.130Z,11.00
2022-10-03T03:57:30.498Z,11.04
2022-10-03T03:58:30.851Z,11.04
2022-10-03T03:59:31.229Z,11.02
2022-10-03T04:00:31.578Z,11.05
2022-10-03T04:01:32.041Z,11.04
2022-10-03T04:02:32.347Z,11.05
2022-10-03T04:03:32.724Z,11.07
2022-10-03T04:04:33.046Z,11.08
2022-10-03T04:05:33.438Z,11.00
2022-10-03T04:06:33.742Z,10.99
2022-10-03T04:07:34.089Z,10.97
2022-10-03T04:08:34.452Z,11.02
2022-10-03T04:09:34.916Z,10.97
2022-10-03T04:10:35.189Z,10.97
2022-10-03T04:11:35.544Z,10.94
2022-10-03T04:12:36.016Z,10.94
2022-10-03T04:13:36.265Z,10.93
2022-10-03T04:14:36.717Z,10.93
2022-10-03T04:15:36.981Z,10.89
2022-10-03T04:16:37.394Z,10.86
2022-10-03T04:17:37.683Z,10.87
2022-10-03T04:18:38.033Z,10.81
2022-10-03T04:19:38.479Z,10.81
2022-10-03T04:20:38.785Z,10.79
2022-10-03T04:21:39.466Z,10.81
2022-10-03T04:22:39.512Z,10.76
2022-10-03T04:23:39.860Z,10.78
2022-10-03T04:24:40.232Z,10.75
2022-10-03T04:25:40.593Z,10.75
2022-10-03T04:26:40.984Z,10.79
2022-10-03T04:27:41.334Z,10.78
2022-10-03T04:28:41.648Z,10.82
2022-10-03T04:29:42.001Z,10.79
2022-10-03T04:30:42.426Z,10.75
2022-10-03T04:31:43.391Z,10.78
2022-10-03T04:32:43.074Z,10.81
2022-10-03T04:33:43.422Z,10.79
2022-10-03T04:34:43.837Z,10.89
2022-10-03T04:35:44.114Z,10.84
2022-10-03T04:36:44.546Z,10.81
2022-10-03T04:37:44.840Z,10.92
2022-10-03T04:38:45.193Z,10.94
2022-10-03T04:39:45.555Z,10.87
2022-10-03T04:40:45.903Z,10.90
2022-10-03T04:41:46.639Z,10.84
2022-10-03T04:42:46.614Z,10.84
2022-10-03T04:43:47.005Z,10.89
2022-10-03T04:44:47.322Z,10.92
2022-10-03T04:45:47.743Z,10.89
2022-10-03T04:46:48.016Z,10.76
2022-10-03T04:47:48.417Z,10.89
2022-10-03T04:48:48.833Z,10.97
2022-10-03T04:49:49.191Z,10.97
2022-10-03T04:50:49.528Z,10.99
2022-10-03T04:51:53.365Z,11.04
2022-10-03T04:52:49.999Z,11.10
2022-10-03T04:53:50.154Z,11.08
2022-10-03T04:54:50.352Z,11.05
2022-10-03T04:55:50.728Z,11.07
2022-10-03T04:56:50.965Z,10.99
2022-10-03T04:57:51.137Z,10.99
2022-10-03T04:58:51.315Z,10.96
2022-10-03T04:59:51.501Z,11.07
2022-10-03T05:00:51.661Z,10.97
2022-10-03T05:01:51.828Z,10.90
2022-10-03T05:02:52.100Z,10.90
2022-10-03T05:03:52.265Z,10.90
2022-10-03T05:04:55.514Z,10.96
2022-10-03T05:05:52.603Z,11.00
2022-10-03T05:06:52.780Z,11.04
2022-10-03T05:07:53.051Z,11.08
2022-10-03T05:08:53.244Z,11.08
2022-10-03T05:09:53.465Z,11.04
2022-10-03T05:10:53.587Z,10.97
2022-10-03T05:11:53.893Z,11.07
2022-10-03T05:12:54.097Z,11.10
2022-10-03T05:13:54.333Z,11.05
2022-10-03T05:14:54.560Z,11.10
2022-10-03T05:15:54.701Z,11.08
2022-10-03T05:16:54.942Z,11.10
2022-10-03T05:17:55.164Z,11.07
2022-10-03T05:18:55.605Z,11.08
2022-10-03T05:19:55.676Z,11.05
2022-10-03T05:20:55.917Z,11.08
2022-10-03T05:21:56.228Z,11.07
2022-10-03T05:22:56.402Z,11.04
2022-10-03T05:23:56.819Z,10.97
2022-10-03T05:24:56.891Z,10.99
2022-10-03T05:26:10.778Z,11.04
2022-10-03T05:26:57.346Z,11.00
2022-10-03T05:27:57.591Z,10.94
2022-10-03T05:28:57.748Z,11.05
2022-10-03T05:29:57.894Z,11.07
2022-10-03T05:30:58.047Z,11.07
2022-10-03T05:31:58.286Z,11.04
2022-10-03T05:32:58.449Z,10.96
2022-10-03T05:33:58.603Z,11.02
2022-10-03T05:34:58.782Z,11.05
2022-10-03T05:35:58.932Z,11.07
2022-10-03T05:36:59.249Z,11.05
2022-10-03T05:37:59.427Z,11.08
2022-10-03T05:38:59.700Z,11.12
2022-10-03T05:39:59.815Z,11.10
2022-10-03T05:40:59.978Z,11.10
2022-10-03T05:42:21.652Z,11.15
2022-10-03T05:43:00.394Z,11.07
2022-10-03T05:44:00.528Z,11.00
2022-10-03T05:45:00.692Z,11.02
2022-10-03T05:46:00.970Z,11.07
2022-10-03T05:47:01.029Z,11.18
2022-10-03T05:48:01.207Z,11.17
2022-10-03T05:49:01.381Z,11.15
2022-10-03T05:50:01.769Z,11.23
2022-10-03T05:51:01.785Z,11.22
2022-10-03T05:52:01.988Z,11.30
2022-10-03T05:53:02.118Z,11.25
2022-10-03T05:54:02.266Z,11.26
2022-10-03T05:55:02.466Z,11.30
2022-10-03T05:56:02.693Z,11.27
2022-10-03T05:57:02.797Z,11.19
2022-10-03T05:58:02.979Z,11.17
2022-10-03T05:59:03.190Z,11.11
2022-10-03T06:00:03.357Z,11.10
2022-10-03T06:01:03.504Z,11.14
2022-10-03T06:02:03.743Z,11.10
2022-10-03T06:03:03.993Z,11.11
2022-10-03T06:04:06.248Z,11.07
2022-10-03T06:05:04.360Z,11.07
2022-10-03T06:06:04.508Z,11.11
2022-10-03T06:07:04.700Z,11.22
2022-10-03T06:08:04.868Z,11.26
2022-10-03T06:09:05.062Z,11.26
2022-10-03T06:10:05.364Z,11.25
2022-10-03T06:11:05.431Z,11.27
2022-10-03T06:12:05.617Z,11.30
2022-10-03T06:13:05.793Z,11.32
2022-10-03T06:14:05.977Z,11.30
2022-10-03T06:15:06.187Z,11.33
2022-10-03T06:16:06.456Z,11.29
2022-10-03T06:17:06.533Z,11.36
2022-10-03T06:18:06.732Z,11.44
2022-10-03T06:19:06.923Z,11.40
2022-10-03T06:20:07.107Z,11.33
2022-10-03T06:21:07.270Z,11.35
2022-10-03T06:22:07.448Z,11.43
2022-10-03T06:23:07.616Z,11.45
2022-10-03T06:24:07.874Z,11.50
2022-10-03T06:25:08.019Z,11.51
2022-10-03T06:26:08.207Z,11.60
2022-10-03T06:27:08.446Z,11.62
2022-10-03T06:28:08.658Z,11.62
2022-10-03T06:29:08.762Z,11.78
2022-10-03T06:30:08.978Z,11.81
2022-10-03T06:31:09.205Z,11.80
2022-10-03T06:32:09.365Z,11.94
2022-10-03T06:33:09.522Z,11.95
2022-10-03T06:34:09.717Z,11.94
2022-10-03T06:35:09.952Z,12.00
2022-10-03T06:36:10.105Z,12.04
2022-10-03T06:37:10.328Z,12.04
2022-10-03T06:38:10.525Z,12.07
2022-10-03T06:39:10.686Z,12.10
2022-10-03T06:40:10.892Z,12.24
2022-10-03T06:41:11.061Z,12.20
2022-10-03T06:42:11.235Z,12.15
2022-10-03T06:43:11.411Z,12.17
2022-10-03T06:44:11.614Z,12.18
2022-10-03T06:45:11.795Z,12.18
2022-10-03T06:46:12.028Z,12.22
2022-10-03T06:47:12.184Z,12.24
2022-10-03T06:48:12.383Z,12.21
2022-10-03T06:49:12.572Z,12.15
2022-10-03T06:50:12.779Z,12.07
2022-10-03T06:51:12.964Z,12.00
2022-10-03T06:52:13.265Z,11.97
2022-10-03T06:53:13.349Z,11.91
2022-10-03T06:54:13.562Z,11.91
2022-10-03T06:55:13.722Z,11.84
2022-10-03T06:56:13.927Z,11.78
2022-10-03T06:57:14.086Z,11.77
2022-10-03T06:58:14.337Z,11.78
2022-10-03T06:59:14.473Z,11.77
2022-10-03T07:00:14.726Z,11.75
2022-10-03T07:01:15.021Z,11.77
2022-10-03T07:02:15.122Z,11.78
2022-10-03T07:03:15.267Z,11.81
2022-10-03T07:04:15.411Z,11.81
2022-10-03T07:05:15.619Z,11.83
2022-10-03T07:06:15.821Z,11.84
2022-10-03T07:07:16.168Z,11.86
2022-10-03T07:08:16.197Z,11.86
2022-10-03T07:09:16.362Z,11.88
2022-10-03T07:10:16.606Z,11.88
2022-10-03T07:11:16.737Z,11.94
2022-10-03T07:12:16.983Z,11.91
2022-10-03T07:13:17.113Z,11.91
2022-10-03T07:14:17.324Z,11.91
2022-10-03T07:15:17.538Z,11.97
2022-10-03T07:16:33.240Z,11.94
2022-10-03T07:17:17.960Z,11.95
2022-10-03T07:18:18.114Z,11.91
2022-10-03T07:19:18.225Z,11.90
2022-10-03T07:20:18.454Z,11.94
2022-10-03T07:21:18.613Z,11.97
2022-10-03T07:22:18.789Z,11.97
2022-10-03T07:23:18.981Z,12.02
2022-10-03T07:24:19.176Z,12.03
2022-10-03T07:25:19.479Z,12.02
2022-10-03T07:26:19.572Z,12.02
2022-10-03T07:27:19.854Z,12.03
2022-10-03T07:28:20.034Z,12.06
2022-10-03T07:29:20.186Z,12.13
2022-10-03T07:30:20.881Z,12.17
2022-10-03T07:31:20.583Z,12.17
2022-10-03T07:32:20.730Z,12.21
2022-10-03T07:33:20.969Z,12.18
2022-10-03T07:34:21.104Z,12.24
2022-10-03T07:35:21.322Z,12.24
2022-10-03T07:36:21.482Z,12.27
2022-10-03T07:37:21.685Z,12.22
2022-10-03T07:38:21.895Z,12.24
2022-10-03T07:39:22.071Z,12.31
2022-10-03T07:40:22.454Z,12.35
2022-10-03T07:41:22.448Z,12.37
2022-10-03T07:42:22.680Z,12.40
2022-10-03T07:43:22.876Z,12.39
2022-10-03T07:44:23.002Z,12.42
2022-10-03T07:45:23.220Z,12.45
2022-10-03T07:46:23.450Z,12.46
2022-10-03T07:47:23.587Z,12.49
2022-10-03T07:48:23.756Z,12.57
2022-10-03T07:49:23.970Z,12.60
2022-10-03T07:50:24.167Z,12.68
2022-10-03T07:51:24.332Z,12.73
2022-10-03T07:52:24.494Z,12.72
2022-10-03T07:53:24.700Z,12.73
2022-10-03T07:54:24.888Z,12.79
2022-10-03T07:55:25.096Z,12.80
2022-10-03T07:56:25.297Z,12.87
2022-10-03T07:57:25.481Z,12.91
2022-10-03T07:58:25.653Z,12.97
2022-10-03T07:59:25.844Z,13.01
2022-10-03T08:00:26.124Z,13.12
2022-10-03T08:01:26.242Z,13.15
2022-10-03T08:02:27.073Z,13.20
2022-10-03T08:03:26.676Z,13.19
2022-10-03T08:04:26.798Z,13.20
2022-10-03T08:05:27.057Z,13.25
2022-10-03T08:06:27.320Z,13.25
2022-10-03T08:07:27.384Z,13.18
2022-10-03T08:08:27.574Z,13.35
2022-10-03T08:09:27.759Z,13.44
2022-10-03T08:10:28.046Z,13.33
2022-10-03T08:11:28.129Z,13.33
2022-10-03T08:12:28.345Z,13.49
2022-10-03T08:13:28.559Z,13.54
2022-10-03T08:14:28.715Z,13.46
2022-10-03T08:15:29.019Z,13.49
2022-10-03T08:16:29.200Z,13.50
2022-10-03T08:17:29.326Z,13.67
2022-10-03T08:18:29.523Z,13.79
2022-10-03T08:19:29.717Z,13.77
2022-10-03T08:20:29.901Z,13.77
2022-10-03T08:21:30.082Z,13.75
2022-10-03T08:22:30.286Z,13.71
2022-10-03T08:23:30.487Z,13.74
2022-10-03T08:24:30.690Z,13.81
2022-10-03T08:25:30.892Z,13.83
2022-10-03T08:26:31.066Z,13.78
2022-10-03T08:27:31.222Z,13.79
2022-10-03T08:28:31.486Z,13.89
2022-10-03T08:29:31.633Z,13.86
2022-10-03T08:30:31.849Z,13.92
2022-10-03T08:31:32.050Z,13.77
2022-10-03T08:32:32.203Z,13.79
2022-10-03T08:33:32.423Z,13.89
2022-10-03T08:34:32.598Z,14.00
2022-10-03T08:35:32.823Z,14.12
2022-10-03T08:36:32.999Z,14.30
2022-10-03T08:37:33.149Z,14.23
2022-10-03T08:38:33.459Z,14.26
2022-10-03T08:39:33.555Z,14.26
2022-10-03T08:40:33.769Z,14.25
2022-10-03T08:41:33.914Z,14.20
2022-10-03T08:42:34.103Z,14.22
2022-10-03T08:43:34.298Z,14.23
2022-10-03T08:44:34.493Z,14.32
2022-10-03T08:45:34.690Z,14.30
2022-10-03T08:46:34.931Z,14.29
2022-10-03T08:47:35.054Z,14.35
2022-10-03T08:48:35.260Z,14.41
2022-10-03T08:49:35.463Z,14.48
2022-10-03T08:50:35.635Z,14.62
2022-10-03T08:51:35.776Z,14.66
2022-10-03T08:52:36.005Z,14.59
2022-10-03T08:53:36.152Z,14.62
2022-10-03T08:54:36.345Z,14.54
2022-10-03T08:55:36.554Z,14.58
2022-10-03T08:56:36.697Z,14.50
2022-10-03T08:57:36.883Z,14.47
2022-10-03T08:58:37.062Z,14.50
2022-10-03T08:59:37.232Z,14.60
2022-10-03T09:00:37.445Z,14.50
2022-10-03T09:01:38.112Z,14.45
2022-10-03T09:02:37.865Z,14.41
2022-10-03T09:03:42.132Z,14.41
2022-10-03T09:04:38.145Z,14.40
2022-10-03T09:05:38.359Z,14.41
2022-10-03T09:06:52.825Z,14.32
2022-10-03T09:07:38.714Z,14.30
2022-10-03T09:08:38.903Z,14.30
2022-10-03T09:09:39.088Z,14.33
2022-10-03T09:10:39.332Z,14.32
2022-10-03T09:11:39.477Z,14.43
2022-10-03T09:12:39.678Z,14.55
2022-10-03T09:13:39.858Z,14.55
2022-10-03T09:14:40.079Z,14.53
2022-10-03T09:15:40.338Z,14.54
2022-10-03T09:16:40.785Z,14.73
2022-10-03T09:17:40.640Z,14.81
2022-10-03T09:18:40.844Z,14.91
2022-10-03T09:19:41.043Z,14.91
2022-10-03T09:20:41.243Z,15.03
2022-10-03T09:21:41.452Z,14.97
2022-10-03T09:22:41.605Z,14.84
2022-10-03T09:23:41.805Z,15.07
2022-10-03T09:24:41.991Z,14.97
2022-10-03T09:25:42.188Z,15.04
2022-10-03T09:26:42.761Z,15.02
2022-10-03T09:27:42.595Z,14.84
2022-10-03T09:28:42.868Z,14.94
2022-10-03T09:29:42.995Z,14.99
2022-10-03T09:30:43.197Z,14.91
2022-10-03T09:31:43.935Z,14.94
2022-10-03T09:32:43.575Z,14.99
2022-10-03T09:33:43.751Z,15.06
2022-10-03T09:34:43.929Z,15.18
2022-10-03T09:35:44.150Z,15.24
2022-10-03T09:36:44.282Z,15.35
2022-10-03T09:37:44.473Z,15.36
2022-10-03T09:38:44.653Z,15.28
2022-10-03T09:39:44.854Z,15.29
2022-10-03T09:40:46.454Z,15.40
2022-10-03T09:41:45.256Z,15.62
2022-10-03T09:42:45.454Z,15.54
2022-10-03T09:43:45.642Z,15.43
2022-10-03T09:44:45.842Z,15.43
2022-10-03T09:45:46.047Z,15.36
2022-10-03T09:46:46.695Z,15.43
2022-10-03T09:47:46.405Z,15.42
2022-10-03T09:48:46.604Z,15.43
2022-10-03T09:49:46.796Z,15.72
2022-10-03T09:50:47.013Z,15.92
2022-10-03T09:51:47.185Z,15.94
2022-10-03T09:52:47.353Z,15.92
2022-10-03T09:53:47.561Z,15.98
2022-10-03T09:54:47.795Z,16.02
2022-10-03T09:55:47.982Z,15.88
2022-10-03T09:56:48.166Z,15.86
2022-10-03T09:57:48.363Z,15.59
2022-10-03T09:58:48.545Z,15.62
2022-10-03T09:59:48.758Z,15.72
2022-10-03T10:00:49.029Z,15.82
2022-10-03T10:01:49.129Z,15.95
2022-10-03T10:02:49.320Z,15.94
2022-10-03T10:03:49.607Z,15.86
2022-10-03T10:04:55.287Z,15.97
2022-10-03T10:05:49.921Z,16.05
2022-10-03T10:06:50.105Z,16.04
2022-10-03T10:07:50.296Z,16.16
2022-10-03T10:08:50.501Z,16.10
2022-10-03T10:09:50.668Z,16.01
2022-10-03T10:10:50.913Z,15.83
2022-10-03T10:11:51.045Z,15.83
2022-10-03T10:12:51.240Z,15.88
2022-10-03T10:14:07.296Z,15.86
2022-10-03T10:14:51.614Z,15.84
2022-10-03T10:15:51.994Z,15.90
2022-10-03T10:16:52.604Z,15.97
2022-10-03T10:17:52.175Z,16.02
2022-10-03T10:18:52.373Z,16.02
2022-10-03T10:19:52.554Z,16.12
2022-10-03T10:20:52.826Z,16.29
2022-10-03T10:21:52.934Z,16.31
2022-10-03T10:22:53.131Z,16.60
2022-10-03T10:23:53.324Z,16.64
2022-10-03T10:24:53.516Z,16.61
2022-10-03T10:25:53.753Z,16.60
2022-10-03T10:26:53.884Z,16.78
2022-10-03T10:27:54.160Z,16.94
2022-10-03T10:28:54.283Z,16.66
2022-10-03T10:29:54.515Z,16.65
2022-10-03T10:30:54.700Z,16.68
2022-10-03T10:31:54.916Z,16.56
2022-10-03T10:32:55.000Z,16.49
2022-10-03T10:33:55.216Z,16.50
2022-10-03T10:34:55.407Z,16.75
2022-10-03T10:35:55.667Z,16.86
2022-10-03T10:36:55.829Z,17.01
2022-10-03T10:37:56.197Z,16.99
2022-10-03T10:38:56.190Z,17.16
2022-10-03T10:39:56.425Z,17.36
2022-10-03T10:40:59.796Z,17.34
2022-10-03T10:41:56.804Z,17.30
2022-10-03T10:42:57.002Z,17.68
2022-10-03T10:43:57.181Z,17.42
2022-10-03T10:44:57.375Z,17.24
2022-10-03T10:45:57.557Z,16.94
2022-10-03T10:46:57.762Z,16.78
2022-10-03T10:47:57.915Z,16.66
2022-10-03T10:49:03.501Z,16.50
2022-10-03T10:49:58.292Z,16.39
2022-10-03T10:50:58.500Z,16.57
2022-10-03T10:51:58.706Z,16.51
2022-10-03T10:52:58.879Z,16.50
2022-10-03T10:53:59.045Z,16.50
2022-10-03T10:54:59.238Z,16.60
2022-10-03T10:55:59.516Z,16.58
2022-10-03T10:56:59.641Z,16.47
2022-10-03T10:57:59.866Z,16.57
2022-10-03T10:59:00.044Z,16.72
2022-10-03T11:00:00.255Z,16.75
2022-10-03T11:01:00.516Z,16.71
2022-10-03T11:02:00.669Z,16.69
2022-10-03T11:03:00.859Z,16.65
2022-10-03T11:04:01.061Z,16.61
2022-10-03T11:05:01.281Z,16.49
2022-10-03T11:06:01.448Z,16.58
2022-10-03T11:07:01.602Z,16.60
2022-10-03T11:08:01.811Z,16.57
2022-10-03T11:09:01.982Z,16.49
2022-10-03T11:10:02.230Z,16.49
2022-10-03T11:11:02.423Z,16.50
2022-10-03T11:12:02.569Z,16.43
2022-10-03T11:13:02.755Z,16.43
2022-10-03T11:14:02.950Z,16.35
2022-10-03T11:15:03.144Z,16.38
2022-10-03T11:16:03.528Z,16.26
2022-10-03T11:17:03.542Z,16.32
2022-10-03T11:18:03.701Z,16.33
2022-10-03T11:19:03.903Z,16.33
2022-10-03T11:20:04.098Z,16.42
2022-10-03T11:21:04.308Z,16.42
2022-10-03T11:22:04.464Z,16.49
2022-10-03T11:23:05.017Z,16.53
2022-10-03T11:24:04.859Z,16.53
2022-10-03T11:25:05.051Z,16.54
2022-10-03T11:26:05.276Z,16.56
2022-10-03T11:27:05.428Z,16.56
2022-10-03T11:28:05.711Z,16.58
2022-10-03T11:29:05.791Z,16.57
2022-10-03T11:30:05.984Z,16.54
2022-10-03T11:31:06.235Z,16.56
2022-10-03T11:32:06.376Z,16.49
2022-10-03T11:33:06.542Z,16.49
2022-10-03T11:34:06.760Z,16.41
2022-10-03T11:35:06.943Z,16.36
2022-10-03T11:36:07.287Z,16.36
2022-10-03T11:37:07.330Z,16.35
2022-10-03T11:38:07.537Z,16.28
2022-10-03T11:39:07.724Z,16.23
2022-10-03T11:40:07.926Z,16.20
2022-10-03T11:41:08.139Z,16.15
2022-10-03T11:42:08.295Z,16.10
2022-10-03T11:43:08.485Z,16.17
2022-10-03T11:44:08.685Z,16.29
2022-10-03T11:45:08.884Z,16.33
2022-10-03T11:46:09.206Z,16.42
2022-10-03T11:47:09.296Z,16.46
2022-10-03T11:48:09.460Z,16.50
2022-10-03T11:49:09.647Z,16.58
2022-10-03T11:50:09.859Z,16.53
2022-10-03T11:51:10.066Z,16.53
2022-10-03T11:52:10.225Z,16.60
2022-10-03T11:53:10.441Z,16.58
2022-10-03T11:54:29.830Z,16.61
2022-10-03T11:55:11.091Z,16.66
2022-10-03T11:56:10.965Z,16.65
2022-10-03T11:57:11.135Z,16.64
2022-10-03T11:58:11.312Z,16.60
2022-10-03T11:59:11.487Z,16.60
2022-10-03T12:00:11.708Z,16.72
2022-10-03T12:01:11.915Z,16.84
2022-10-03T12:02:12.116Z,16.79
2022-10-03T12:03:12.295Z,16.74
2022-10-03T12:04:12.439Z,16.78
2022-10-03T12:05:12.625Z,16.84
2022-10-03T12:06:12.851Z,16.79
2022-10-03T12:07:15.897Z,16.78
2022-10-03T12:08:13.234Z,16.81
2022-10-03T12:09:13.417Z,16.87
2022-10-03T12:10:13.596Z,16.90
2022-10-03T12:11:13.855Z,16.81
2022-10-03T12:12:13.987Z,16.83
2022-10-03T12:13:14.158Z,16.79
2022-10-03T12:14:14.363Z,16.84
2022-10-03T12:15:14.546Z,16.93
2022-10-03T12:16:14.809Z,16.97
2022-10-03T12:17:14.939Z,16.94
2022-10-03T12:18:15.149Z,16.91
2022-10-03T12:19:15.346Z,16.90
2022-10-03T12:20:15.507Z,17.02
2022-10-03T12:21:20.949Z,17.08
2022-10-03T12:22:15.880Z,17.06
2022-10-03T12:23:16.072Z,16.97
2022-10-03T12:24:16.275Z,16.91
2022-10-03T12:25:16.459Z,16.89
2022-10-03T12:26:16.680Z,16.91
2022-10-03T12:27:16.849Z,16.93
2022-10-03T12:28:17.070Z,16.86
2022-10-03T12:29:17.218Z,16.84
2022-10-03T12:30:17.430Z,16.79
2022-10-03T12:31:19.234Z,16.75
2022-10-03T12:32:17.830Z,16.74
2022-10-03T12:33:17.943Z,16.69
2022-10-03T12:34:18.130Z,16.68
2022-10-03T12:35:18.332Z,16.69
2022-10-03T12:36:18.545Z,16.66
2022-10-03T12:37:18.757Z,16.66
2022-10-03T12:38:18.918Z,16.69
2022-10-03T12:39:19.113Z,16.68
2022-10-03T12:40:19.315Z,16.69
2022-10-03T12:41:19.578Z,16.71
2022-10-03T12:42:19.669Z,16.68
2022-10-03T12:43:19.860Z,16.66
2022-10-03T12:44:20.063Z,16.64
2022-10-03T12:45:20.228Z,16.54
2022-10-03T12:46:20.582Z,16.53
2022-10-03T12:47:37.330Z,16.54
2022-10-03T12:48:20.837Z,16.60
2022-10-03T12:49:20.999Z,16.58
2022-10-03T12:50:21.194Z,16.60
2022-10-03T12:51:21.420Z,16.64
2022-10-03T12:52:21.563Z,16.61
2022-10-03T12:53:21.737Z,16.69
2022-10-03T12:54:24.778Z,16.66
2022-10-03T12:55:22.122Z,16.68
2022-10-03T12:56:22.316Z,16.68
2022-10-03T12:57:22.470Z,16.68